Time;durP1;ratioP1;P1;durP2;ratioP2;P2;SDS_P1;SDS_P2;PMS_P1;PMS_P2;Temp;Humidity;BMP_temperature;BMP_pressure;BME280_temperature;BME280_humidity;BME280_pressure;Samples;Min_cycle;Max_cycle;Signal;HPM_P1;HPM_P2
2022/07/01 00:00:25;;;;;;;1999.90;999.90;;;15.70;99.90;;;;;;5078712;28;21428;-80
2022/07/01 00:02:51;;;;;;;1999.90;999.90;;;16.00;99.90;;;;;;5093398;28;20036;-76
2022/07/01 00:05:17;;;;;;;1999.90;999.90;;;15.80;99.90;;;;;;5099298;28;20084;-80
2022/07/01 00:07:42;;;;;;;878.75;353.60;;;15.80;99.90;;;;;;5080366;28;20055;-79
2022/07/01 00:10:08;;;;;;;1999.90;999.90;;;15.70;99.90;;;;;;5080503;28;20491;-78
2022/07/01 00:12:34;;;;;;;1999.90;999.90;;;15.60;99.90;;;;;;5057882;28;20050;-77
2022/07/01 00:15:00;;;;;;;1999.90;999.90;;;15.60;99.90;;;;;;5075511;28;20161;-77
2022/07/01 00:17:25;;;;;;;1999.90;999.90;;;15.70;99.90;;;;;;5095025;28;20389;-78
2022/07/01 00:19:51;;;;;;;1999.90;999.90;;;15.70;99.90;;;;;;5075016;28;20040;-77
2022/07/01 00:22:17;;;;;;;1999.90;999.90;;;15.80;99.90;;;;;;5091098;28;20102;-77
2022/07/01 00:24:45;;;;;;;1999.90;999.90;;;15.60;99.90;;;;;;5071099;28;20403;-77
2022/07/01 00:27:11;;;;;;;1601.78;771.85;;;15.60;99.90;;;;;;5073588;28;20024;-77
2022/07/01 00:29:36;;;;;;;1999.90;999.90;;;15.70;99.90;;;;;;5102565;28;20364;-78
2022/07/01 00:32:02;;;;;;;1999.90;999.90;;;15.60;99.90;;;;;;5066732;28;20047;-77
2022/07/01 00:34:27;;;;;;;1999.90;999.90;;;15.80;99.90;;;;;;5082059;28;20030;-77
2022/07/01 00:36:53;;;;;;;1999.90;999.90;;;15.80;99.90;;;;;;5070414;28;20363;-77
2022/07/01 00:39:19;;;;;;;1999.90;999.90;;;15.80;99.90;;;;;;5080277;28;20036;-80
2022/07/01 00:41:44;;;;;;;1999.90;999.90;;;15.90;99.90;;;;;;5091371;28;20043;-77
2022/07/01 00:44:20;;;;;;;1999.90;999.90;;;15.70;99.90;;;;;;5060242;28;20554;-77
2022/07/01 00:46:50;;;;;;;1999.90;999.90;;;15.70;99.90;;;;;;5074314;28;20113;-77
2022/07/01 00:49:16;;;;;;;1999.90;999.90;;;15.70;99.90;;;;;;5076084;28;20368;-81
2022/07/01 00:51:42;;;;;;;1999.90;999.90;;;15.80;99.90;;;;;;5071984;28;20036;-77
2022/07/01 00:54:08;;;;;;;1999.90;999.90;;;15.80;99.90;;;;;;5070578;28;20206;-78
2022/07/01 00:56:34;;;;;;;1999.90;999.90;;;15.70;99.90;;;;;;5073688;28;20118;-78
2022/07/01 00:59:00;;;;;;;1999.90;999.90;;;15.70;99.90;;;;;;5086870;28;20040;-78
2022/07/01 01:01:26;;;;;;;1999.90;999.90;;;15.80;99.90;;;;;;5077721;28;20569;-79
2022/07/01 01:03:51;;;;;;;1999.90;999.90;;;15.70;99.90;;;;;;5060187;28;20031;-77
2022/07/01 01:06:17;;;;;;;1999.90;999.90;;;15.90;99.90;;;;;;5097750;28;20829;-78
2022/07/01 01:08:44;;;;;;;1999.90;999.90;;;15.70;99.90;;;;;;5061858;28;20031;-78
2022/07/01 01:11:10;;;;;;;1999.90;999.90;;;15.60;99.90;;;;;;5060787;28;20506;-78
2022/07/01 01:13:35;;;;;;;1999.90;999.90;;;15.70;99.90;;;;;;5058074;28;20044;-83
2022/07/01 01:16:01;;;;;;;1999.90;999.90;;;15.70;99.90;;;;;;5076033;28;20531;-79
2022/07/01 01:18:27;;;;;;;1999.90;999.90;;;15.70;99.90;;;;;;5085735;28;20158;-78
2022/07/01 01:20:54;;;;;;;1999.90;999.90;;;15.80;99.90;;;;;;5090873;28;20031;-78
2022/07/01 01:23:20;;;;;;;1999.90;999.90;;;15.70;99.90;;;;;;5089437;28;20032;-78
2022/07/01 01:25:47;;;;;;;1999.90;999.90;;;15.90;99.90;;;;;;5075217;28;20047;-79
2022/07/01 01:28:13;;;;;;;1999.90;999.90;;;15.90;99.90;;;;;;5086030;28;20047;-78
2022/07/01 01:30:38;;;;;;;1999.90;999.90;;;15.90;99.90;;;;;;5086284;28;20495;-78
2022/07/01 01:33:04;;;;;;;1999.90;999.90;;;15.90;99.90;;;;;;5081784;28;20036;-78
2022/07/01 01:35:31;;;;;;;1999.90;999.90;;;16.10;99.90;;;;;;5098814;28;20027;-79
2022/07/01 01:37:57;;;;;;;1999.90;999.90;;;16.10;99.90;;;;;;5081763;28;20027;-78
2022/07/01 01:40:23;;;;;;;1999.90;999.90;;;16.10;99.90;;;;;;5092398;28;20080;-78
2022/07/01 01:42:48;;;;;;;1999.90;999.90;;;16.00;99.90;;;;;;5081778;28;20100;-78
2022/07/01 01:45:14;;;;;;;1999.90;999.90;;;16.10;99.90;;;;;;5081553;28;20040;-77
2022/07/01 01:47:40;;;;;;;1999.90;999.90;;;16.00;99.90;;;;;;5077394;28;20032;-79
2022/07/01 01:50:08;;;;;;;1999.90;999.90;;;16.10;99.90;;;;;;5097066;28;20359;-78
2022/07/01 01:52:34;;;;;;;1999.90;999.90;;;15.90;99.90;;;;;;5092506;28;20016;-78
2022/07/01 01:55:00;;;;;;;1999.90;999.90;;;15.90;99.90;;;;;;5091286;28;20039;-78
2022/07/01 01:57:26;;;;;;;1999.90;999.90;;;15.70;99.90;;;;;;5083029;28;20398;-78
2022/07/01 01:59:52;;;;;;;1999.90;999.90;;;15.70;99.90;;;;;;5078100;28;20031;-79
2022/07/01 02:02:18;;;;;;;1999.90;999.90;;;15.70;99.90;;;;;;5106488;28;20042;-78
2022/07/01 02:04:43;;;;;;;1999.90;999.90;;;15.50;99.90;;;;;;5083000;28;20024;-77
2022/07/01 02:07:09;;;;;;;1999.90;999.90;;;15.30;99.90;;;;;;5081743;28;20063;-78
2022/07/01 02:09:35;;;;;;;1999.90;999.90;;;15.00;99.90;;;;;;5101151;28;20028;-78
2022/07/01 02:12:00;;;;;;;1999.90;999.90;;;15.20;99.90;;;;;;5080522;28;20067;-79
2022/07/01 02:14:27;;;;;;;1999.90;999.90;;;15.10;99.90;;;;;;5077969;28;20391;-77
2022/07/01 02:16:53;;;;;;;1999.90;999.90;;;15.20;99.90;;;;;;5096677;28;20026;-78
2022/07/01 02:19:18;;;;;;;1999.90;999.90;;;15.10;99.90;;;;;;5076650;28;20024;-78
2022/07/01 02:21:44;;;;;;;1999.90;999.90;;;15.20;99.90;;;;;;5079077;28;20028;-79
2022/07/01 02:24:10;;;;;;;1999.90;999.90;;;15.10;99.90;;;;;;5072487;28;20038;-77
2022/07/01 02:26:35;;;;;;;1999.90;999.90;;;14.90;99.90;;;;;;5084434;28;20027;-78
2022/07/01 02:29:01;;;;;;;1999.90;999.90;;;14.90;99.90;;;;;;5079330;28;20399;-77
2022/07/01 02:31:27;;;;;;;1999.90;999.90;;;14.90;99.90;;;;;;5087628;28;20023;-78
2022/07/01 02:33:54;;;;;;;1999.90;999.90;;;14.90;99.90;;;;;;5086812;28;20030;-77
2022/07/01 02:36:19;;;;;;;1999.90;999.90;;;15.00;99.90;;;;;;5094882;28;20089;-78
2022/07/01 02:38:45;;;;;;;1999.90;999.90;;;14.90;99.90;;;;;;5098392;28;20040;-77
2022/07/01 02:41:11;;;;;;;1999.90;999.90;;;15.00;99.90;;;;;;5079461;28;20039;-77
2022/07/01 02:43:36;;;;;;;1999.90;999.90;;;14.80;99.90;;;;;;5097557;28;20100;-77
2022/07/01 02:46:02;;;;;;;1999.90;999.90;;;14.90;99.90;;;;;;5077266;28;20036;-77
2022/07/01 02:48:28;;;;;;;1999.90;999.90;;;15.00;99.90;;;;;;5074882;28;20881;-77
2022/07/01 02:50:53;;;;;;;1999.90;999.90;;;15.00;99.90;;;;;;5092943;28;20473;-78
2022/07/01 02:53:19;;;;;;;1999.90;999.90;;;14.90;99.90;;;;;;5091209;28;20070;-77
2022/07/01 02:55:45;;;;;;;1999.90;999.90;;;14.80;99.90;;;;;;5081385;28;20193;-77
2022/07/01 02:58:10;;;;;;;1999.90;999.90;;;14.80;99.90;;;;;;5103216;28;20502;-77
2022/07/01 03:00:36;;;;;;;1999.90;999.90;;;14.70;99.90;;;;;;5077885;28;20039;-79
2022/07/01 03:03:03;;;;;;;1999.90;999.90;;;14.80;99.90;;;;;;5104450;28;20031;-77
2022/07/01 03:05:28;;;;;;;1999.90;999.90;;;14.60;99.90;;;;;;5093784;28;20114;-77
2022/07/01 03:07:54;;;;;;;1999.90;999.90;;;14.70;99.90;;;;;;5078305;28;20112;-77
2022/07/01 03:10:20;;;;;;;1999.90;999.90;;;14.40;99.90;;;;;;5080135;28;20502;-77
2022/07/01 03:12:45;;;;;;;1999.90;999.90;;;14.40;99.90;;;;;;5097261;28;20040;-77
2022/07/01 03:15:13;;;;;;;1999.90;999.90;;;14.40;99.90;;;;;;5069357;28;20038;-78
2022/07/01 03:17:41;;;;;;;1999.90;999.90;;;14.40;99.90;;;;;;5089733;28;20028;-78
2022/07/01 03:20:09;;;;;;;1999.90;999.90;;;14.20;99.90;;;;;;5094689;28;20126;-77
2022/07/01 03:22:35;;;;;;;1999.90;999.90;;;14.30;99.90;;;;;;5053361;28;20398;-77
2022/07/01 03:25:02;;;;;;;1999.90;999.90;;;14.20;99.90;;;;;;5045555;28;20043;-79
2022/07/01 03:27:28;;;;;;;1999.90;999.90;;;14.30;99.90;;;;;;5093348;28;20028;-77
2022/07/01 03:29:54;;;;;;;1999.90;999.90;;;14.20;99.90;;;;;;5096946;28;20074;-77
2022/07/01 03:32:20;;;;;;;1999.90;999.90;;;14.30;99.90;;;;;;5093492;28;20084;-77
2022/07/01 03:34:48;;;;;;;1999.90;999.90;;;14.30;99.90;;;;;;5081777;28;20123;-77
2022/07/01 03:37:16;;;;;;;1999.90;999.90;;;14.30;99.90;;;;;;5097498;28;20129;-77
2022/07/01 03:39:42;;;;;;;1999.90;999.90;;;14.40;99.90;;;;;;5078351;28;20072;-77
2022/07/01 03:42:08;;;;;;;1999.90;999.90;;;14.30;99.90;;;;;;5078804;28;20146;-77
2022/07/01 03:44:35;;;;;;;1999.90;999.90;;;14.50;99.90;;;;;;5094759;28;20103;-77
2022/07/01 03:47:01;;;;;;;1999.90;999.90;;;14.40;99.90;;;;;;5095189;28;20032;-79
2022/07/01 03:49:26;;;;;;;1999.90;999.90;;;14.40;99.90;;;;;;5091237;28;20709;-77
2022/07/01 03:51:52;;;;;;;1999.90;999.90;;;14.30;99.90;;;;;;5091908;28;20028;-77
2022/07/01 03:54:32;;;;;;;1999.90;999.90;;;14.30;99.90;;;;;;5087357;28;20031;-76
2022/07/01 03:57:03;;;;;;;1999.90;999.90;;;14.10;99.90;;;;;;5107335;28;20019;-79
2022/07/01 03:59:32;;;;;;;1999.90;999.90;;;14.20;99.90;;;;;;5095768;28;20012;-78
2022/07/01 04:01:58;;;;;;;1999.90;999.90;;;14.20;99.90;;;;;;5096920;28;20510;-78
2022/07/01 04:04:25;;;;;;;1999.90;999.90;;;14.20;99.90;;;;;;5095065;28;20030;-77
2022/07/01 04:06:51;;;;;;;1999.90;999.90;;;14.20;99.90;;;;;;5096189;28;20032;-77
2022/07/01 04:09:17;;;;;;;1999.90;999.90;;;14.20;99.90;;;;;;5094804;28;20050;-78
2022/07/01 04:11:44;;;;;;;1999.90;999.90;;;14.10;99.90;;;;;;5088992;28;20111;-77
2022/07/01 04:14:10;;;;;;;1999.90;999.90;;;14.10;99.90;;;;;;5094080;28;20028;-77
2022/07/01 04:16:36;;;;;;;1999.90;999.90;;;14.10;99.90;;;;;;5069936;28;20032;-78
2022/07/01 04:19:02;;;;;;;1999.90;999.90;;;14.10;99.90;;;;;;5068786;28;20036;-85
2022/07/01 04:24:15;;;;;;;1999.90;999.90;;;14.10;99.90;;;;;;5073284;28;20560;-77
2022/07/01 04:26:41;;;;;;;1999.90;999.90;;;14.10;99.90;;;;;;5087162;28;20518;-79
2022/07/01 04:29:07;;;;;;;1999.90;999.90;;;14.00;99.90;;;;;;5084214;28;20054;-81
2022/07/01 04:31:34;;;;;;;1999.90;999.90;;;14.00;99.90;;;;;;5099566;28;20055;-79
2022/07/01 04:34:00;;;;;;;1999.90;999.90;;;14.10;99.90;;;;;;5093423;28;20024;-80
2022/07/01 04:36:26;;;;;;;1999.90;999.90;;;14.30;99.90;;;;;;5100549;28;20580;-79
2022/07/01 04:38:51;;;;;;;1999.90;999.90;;;14.10;99.90;;;;;;5098493;28;20128;-79
2022/07/01 04:44:02;;;;;;;1999.90;999.90;;;13.90;99.90;;;;;;5094485;28;20117;-79
2022/07/01 04:46:28;;;;;;;1999.90;999.90;;;13.90;99.90;;;;;;5068947;28;20510;-81
2022/07/01 04:48:54;;;;;;;1999.90;999.90;;;13.80;99.90;;;;;;5088384;28;20028;-81
2022/07/01 04:51:20;;;;;;;1999.90;999.90;;;14.00;99.90;;;;;;5083644;28;20058;-80
2022/07/01 04:53:46;;;;;;;1999.90;999.90;;;13.90;99.90;;;;;;5066296;28;20393;-81
2022/07/01 04:56:11;;;;;;;1999.90;999.90;;;13.70;99.90;;;;;;5099028;28;20035;-80
2022/07/01 04:58:37;;;;;;;1999.90;999.90;;;13.60;99.90;;;;;;5094474;28;20028;-80
2022/07/01 05:01:03;;;;;;;1999.90;999.90;;;13.20;99.90;;;;;;5079323;28;20036;-80
2022/07/01 05:03:28;;;;;;;1568.18;764.85;;;12.90;99.90;;;;;;5079122;28;20470;-79
2022/07/01 05:05:54;;;;;;;1999.90;999.90;;;12.60;99.90;;;;;;5069333;28;20032;-78
2022/07/01 05:08:19;;;;;;;1999.90;999.90;;;12.50;99.90;;;;;;5073124;28;20077;-79
2022/07/01 05:10:45;;;;;;;1999.90;999.90;;;12.50;99.90;;;;;;5069549;28;20109;-85
2022/07/01 05:13:11;;;;;;;1999.90;999.90;;;12.60;99.90;;;;;;5088586;28;20036;-83
2022/07/01 05:15:36;;;;;;;1999.90;999.90;;;12.40;99.90;;;;;;5061753;28;20043;-82
2022/07/01 05:23:30;;;;;;;1999.90;999.90;;;12.60;99.90;;;;;;5094093;28;20403;-81
2022/07/01 05:25:57;;;;;;;1999.90;999.90;;;12.70;99.90;;;;;;5081149;28;20549;-86
2022/07/01 05:28:23;;;;;;;1999.90;999.90;;;12.70;99.90;;;;;;5081559;28;20032;-81
2022/07/01 05:30:48;;;;;;;1999.90;999.90;;;12.70;99.90;;;;;;5095574;28;20066;-84
2022/07/01 05:33:15;;;;;;;1999.90;999.90;;;12.70;99.90;;;;;;5079360;28;20610;-81
2022/07/01 05:35:40;;;;;;;1999.90;999.90;;;12.70;99.90;;;;;;5078316;28;20249;-81
2022/07/01 05:38:06;;;;;;;1999.90;999.90;;;12.80;99.90;;;;;;5095890;28;20050;-78
2022/07/01 05:40:32;;;;;;;1999.90;999.90;;;12.80;99.90;;;;;;5093533;28;20039;-77
2022/07/01 05:42:57;;;;;;;1999.90;999.90;;;12.70;99.90;;;;;;5071362;28;20487;-78
2022/07/01 05:45:23;;;;;;;1999.90;999.90;;;12.80;99.90;;;;;;5074652;28;20098;-77
2022/07/01 05:47:49;;;;;;;1999.90;999.90;;;12.80;99.90;;;;;;5073988;28;20032;-77
2022/07/01 05:50:15;;;;;;;1999.90;999.90;;;12.70;99.90;;;;;;5074210;28;20032;-76
2022/07/01 05:52:43;;;;;;;1999.90;999.90;;;12.90;99.90;;;;;;5070648;28;20027;-77
2022/07/01 05:55:10;;;;;;;1999.90;999.90;;;12.90;99.90;;;;;;5095827;28;20020;-77
2022/07/01 05:57:36;;;;;;;1999.90;999.90;;;12.80;99.90;;;;;;5087385;28;20314;-78
2022/07/01 06:00:03;;;;;;;1999.90;999.90;;;12.90;99.90;;;;;;5072699;28;20085;-79
2022/07/01 06:02:29;;;;;;;1999.90;999.90;;;12.90;99.90;;;;;;5090225;28;20024;-78
2022/07/01 06:04:54;;;;;;;1999.90;999.90;;;13.20;99.90;;;;;;5091818;28;20034;-78
2022/07/01 06:07:20;;;;;;;1999.90;999.90;;;13.20;99.90;;;;;;5095385;28;20115;-78
2022/07/01 06:09:45;;;;;;;1999.90;999.90;;;13.10;99.90;;;;;;5096414;28;20036;-77
2022/07/01 06:12:11;;;;;;;1999.90;999.90;;;13.20;99.90;;;;;;5072952;28;20089;-78
2022/07/01 06:14:37;;;;;;;1999.90;999.90;;;13.50;99.90;;;;;;5067772;28;20111;-77
2022/07/01 06:17:04;;;;;;;1999.90;999.90;;;13.40;99.90;;;;;;5086289;28;20490;-78
2022/07/01 06:19:29;;;;;;;1999.90;999.90;;;13.40;99.90;;;;;;5089084;28;20024;-79
2022/07/01 06:21:56;;;;;;;1999.90;999.90;;;13.40;99.90;;;;;;5092331;28;20474;-77
2022/07/01 06:24:22;;;;;;;1999.90;999.90;;;13.30;99.90;;;;;;5095316;28;20019;-78
2022/07/01 06:26:48;;;;;;;1999.90;999.90;;;13.40;99.90;;;;;;5101961;28;20097;-77
2022/07/01 06:29:13;;;;;;;1999.90;999.90;;;13.50;99.90;;;;;;5093546;28;20034;-78
2022/07/01 06:31:39;;;;;;;1999.90;999.90;;;13.50;99.90;;;;;;5095092;28;20115;-77
2022/07/01 06:34:05;;;;;;;1999.90;999.90;;;13.60;99.90;;;;;;5080064;28;20141;-77
2022/07/01 06:36:30;;;;;;;1999.90;999.90;;;13.60;99.90;;;;;;5077252;28;20128;-78
2022/07/01 06:38:56;;;;;;;1999.90;999.90;;;13.50;99.90;;;;;;5076511;28;20123;-78
2022/07/01 06:41:27;;;;;;;1999.90;999.90;;;13.40;99.90;;;;;;5094975;28;20048;-79
2022/07/01 06:44:00;;;;;;;1999.90;999.90;;;13.60;99.90;;;;;;5074514;28;20117;-78
2022/07/01 06:46:28;;;;;;;1999.90;999.90;;;13.80;99.90;;;;;;5096465;28;20023;-79
2022/07/01 06:48:54;;;;;;;1999.90;999.90;;;13.70;99.90;;;;;;5083159;28;20030;-78
2022/07/01 06:51:20;;;;;;;1999.90;999.90;;;13.80;99.90;;;;;;5088677;28;20129;-77
2022/07/01 06:53:46;;;;;;;1999.90;999.90;;;14.00;99.90;;;;;;5082818;28;20032;-80
2022/07/01 06:56:13;;;;;;;1999.90;999.90;;;13.90;99.90;;;;;;5074724;28;20052;-78
2022/07/01 06:58:39;;;;;;;1999.90;999.90;;;14.10;99.90;;;;;;5096129;28;20030;-78
2022/07/01 07:01:05;;;;;;;1999.90;999.90;;;14.10;99.90;;;;;;5066542;28;20037;-77
2022/07/01 07:03:34;;;;;;;1999.90;999.90;;;14.10;99.90;;;;;;5071234;28;20035;-79
2022/07/01 07:06:01;;;;;;;1999.90;999.90;;;14.10;99.90;;;;;;5062462;28;20023;-78
2022/07/01 07:08:31;;;;;;;1999.90;999.90;;;14.10;99.90;;;;;;5093751;28;20023;-78
2022/07/01 07:10:58;;;;;;;1999.90;999.90;;;14.40;99.90;;;;;;5089551;28;20023;-79
2022/07/01 07:13:25;;;;;;;1999.90;999.90;;;14.50;99.90;;;;;;5063149;28;20048;-79
2022/07/01 07:15:50;;;;;;;1999.90;999.90;;;14.30;99.90;;;;;;5083908;28;20082;-79
2022/07/01 07:18:17;;;;;;;1999.90;999.90;;;14.40;99.90;;;;;;5087125;28;20040;-84
2022/07/01 07:20:43;;;;;;;1999.90;999.90;;;14.40;99.90;;;;;;5074189;28;20028;-80
2022/07/01 07:23:08;;;;;;;1999.90;999.90;;;14.30;99.90;;;;;;5081937;28;20036;-80
2022/07/01 07:25:34;;;;;;;1999.90;999.90;;;14.00;99.90;;;;;;5089827;28;20094;-80
2022/07/01 07:28:00;;;;;;;1999.90;999.90;;;14.10;99.90;;;;;;5092693;28;20541;-80
2022/07/01 07:30:25;;;;;;;1999.90;999.90;;;14.20;99.90;;;;;;5077881;28;20050;-79
2022/07/01 07:32:51;;;;;;;1999.90;999.90;;;14.20;99.90;;;;;;5078088;28;20024;-80
2022/07/01 07:35:17;;;;;;;1999.90;999.90;;;14.00;99.90;;;;;;5063715;28;20032;-79
2022/07/01 07:37:43;;;;;;;1999.90;999.90;;;13.90;99.90;;;;;;5077357;28;20498;-80
2022/07/01 07:40:12;;;;;;;1999.90;999.90;;;13.70;99.90;;;;;;5089348;28;20107;-80
2022/07/01 07:42:38;;;;;;;1999.90;999.90;;;13.80;99.90;;;;;;5076302;28;20028;-79
2022/07/01 07:45:06;;;;;;;1999.90;999.90;;;13.70;99.90;;;;;;5090562;28;20107;-80
2022/07/01 07:47:32;;;;;;;1999.90;999.90;;;13.60;99.90;;;;;;5089000;28;20024;-78
2022/07/01 07:49:58;;;;;;;1999.90;999.90;;;13.60;99.90;;;;;;5092918;28;20028;-79
2022/07/01 07:52:23;;;;;;;1999.90;999.90;;;13.50;99.90;;;;;;5091349;28;20759;-80
2022/07/01 07:54:49;;;;;;;1999.90;999.90;;;13.50;99.90;;;;;;5073802;28;20046;-80
2022/07/01 07:57:15;;;;;;;1999.90;999.90;;;13.50;99.90;;;;;;5100913;28;20032;-80
2022/07/01 07:59:40;;;;;;;1999.90;999.90;;;13.60;99.90;;;;;;5080800;28;20474;-78
2022/07/01 08:02:07;;;;;;;1999.90;999.90;;;13.50;99.90;;;;;;5092508;28;20508;-79
2022/07/01 08:04:32;;;;;;;1999.90;999.90;;;13.70;99.90;;;;;;5078542;28;20232;-79
2022/07/01 08:06:58;;;;;;;1999.90;999.90;;;14.00;99.90;;;;;;5060572;28;20032;-80
2022/07/01 08:09:24;;;;;;;1999.90;999.90;;;14.00;99.90;;;;;;5074450;28;20028;-80
2022/07/01 08:11:50;;;;;;;1999.90;999.90;;;14.00;99.90;;;;;;5092642;28;20086;-84
2022/07/01 08:14:16;;;;;;;1999.90;999.90;;;14.00;99.90;;;;;;5073382;28;20506;-82
2022/07/01 08:16:42;;;;;;;1999.90;999.90;;;14.10;99.90;;;;;;5073887;28;20091;-80
2022/07/01 08:19:07;;;;;;;1999.90;999.90;;;14.40;99.90;;;;;;5090923;28;20028;-79
2022/07/01 08:21:33;;;;;;;1999.90;999.90;;;14.40;99.90;;;;;;5087022;28;20137;-81
2022/07/01 08:23:59;;;;;;;1999.90;999.90;;;14.60;99.90;;;;;;5034768;28;20028;-78
2022/07/01 08:26:24;;;;;;;1999.90;999.90;;;14.70;99.90;;;;;;5098748;28;20039;-80
2022/07/01 08:28:50;;;;;;;1999.90;999.90;;;14.60;99.90;;;;;;5064017;28;20383;-79
2022/07/01 08:31:16;;;;;;;1999.90;999.90;;;14.60;99.90;;;;;;5082047;28;20510;-80
2022/07/01 08:33:42;;;;;;;1999.90;999.90;;;14.80;99.90;;;;;;5077976;28;20034;-80
2022/07/01 08:36:09;;;;;;;1999.90;999.90;;;15.00;99.90;;;;;;5091547;28;20038;-88
2022/07/01 08:38:35;;;;;;;1999.90;999.90;;;15.00;99.90;;;;;;5094720;28;20081;-80
2022/07/01 08:41:03;;;;;;;1999.90;999.90;;;14.70;99.90;;;;;;5091507;28;20080;-79
2022/07/01 08:43:29;;;;;;;1999.90;999.90;;;14.60;99.90;;;;;;5091831;28;20031;-80
2022/07/01 08:45:55;;;;;;;1999.90;999.90;;;14.90;99.90;;;;;;5089270;28;20063;-80
2022/07/01 08:48:20;;;;;;;1999.90;999.90;;;14.80;99.90;;;;;;5085176;28;20052;-80
2022/07/01 08:50:46;;;;;;;1999.90;999.90;;;14.50;99.90;;;;;;5087227;28;20631;-78
2022/07/01 08:53:13;;;;;;;1999.90;999.90;;;14.90;99.90;;;;;;5087024;28;20085;-80
2022/07/01 08:58:36;;;;;;;1999.90;999.90;;;14.70;99.90;;;;;;5048279;28;20041;-80
2022/07/01 09:01:22;;;;;;;1999.90;999.90;;;14.70;99.90;;;;;;5088711;28;20086;-85
2022/07/01 09:03:52;;;;;;;1999.90;999.90;;;14.70;99.90;;;;;;5091918;28;20706;-79
2022/07/01 09:06:20;;;;;;;1999.90;999.90;;;14.80;99.90;;;;;;5091046;28;20032;-79
2022/07/01 09:08:47;;;;;;;1999.90;999.90;;;14.90;99.90;;;;;;5092603;28;20103;-78
2022/07/01 09:11:19;;;;;;;1999.90;999.90;;;14.70;99.90;;;;;;5092245;28;20062;-79
2022/07/01 09:14:03;;;;;;;1999.90;999.90;;;14.80;99.90;;;;;;5052181;28;20777;-79
2022/07/01 09:16:29;;;;;;;1999.90;999.90;;;14.70;99.90;;;;;;5071053;28;20080;-80
2022/07/01 09:19:04;;;;;;;1999.90;999.90;;;14.60;99.90;;;;;;5072287;28;20024;-80
2022/07/01 09:21:30;;;;;;;1999.90;999.90;;;14.90;99.90;;;;;;5087202;28;20040;-81
2022/07/01 09:24:04;;;;;;;1999.90;999.90;;;14.70;99.90;;;;;;5095345;28;20027;-79
2022/07/01 09:26:30;;;;;;;1999.90;999.90;;;14.80;99.90;;;;;;5101106;28;20028;-80
2022/07/01 09:28:57;;;;;;;1999.90;999.90;;;15.10;99.90;;;;;;5066358;28;20028;-79
2022/07/01 09:31:32;;;;;;;1999.90;999.90;;;15.10;99.90;;;;;;5071017;28;20035;-83
2022/07/01 09:34:08;;;;;;;1999.90;999.90;;;15.20;99.90;;;;;;5093534;28;20217;-85
2022/07/01 09:36:40;;;;;;;1999.90;999.90;;;14.80;99.90;;;;;;5090296;28;20095;-77
2022/07/01 09:39:06;;;;;;;1999.90;999.90;;;14.90;99.90;;;;;;5070017;28;20036;-78
2022/07/01 09:41:38;;;;;;;1999.90;999.90;;;14.70;99.90;;;;;;5079346;28;20059;-79
2022/07/01 09:44:08;;;;;;;1999.90;999.90;;;14.70;99.90;;;;;;5086698;28;20034;-78
2022/07/01 09:46:34;;;;;;;1999.90;999.90;;;14.70;99.90;;;;;;5088310;28;20032;-82
2022/07/01 09:49:00;;;;;;;1999.90;999.90;;;14.70;99.90;;;;;;5072348;28;20498;-78
2022/07/01 09:51:27;;;;;;;1999.90;999.90;;;14.40;99.90;;;;;;5084716;28;20135;-78
2022/07/01 09:53:53;;;;;;;1999.90;999.90;;;14.30;99.90;;;;;;5074204;28;20036;-78
2022/07/01 09:56:19;;;;;;;1999.90;999.90;;;14.20;99.90;;;;;;5082917;28;20035;-78
2022/07/01 09:58:45;;;;;;;1999.90;999.90;;;14.10;99.90;;;;;;5095056;28;20028;-77
2022/07/01 10:01:14;;;;;;;1999.90;999.90;;;14.20;99.90;;;;;;5075363;28;20036;-80
2022/07/01 10:03:41;;;;;;;1999.90;999.90;;;14.30;99.90;;;;;;5082441;28;20218;-79
2022/07/01 10:06:33;;;;;;;1999.90;999.90;;;14.20;99.90;;;;;;5076368;28;20038;-78
2022/07/01 10:09:26;;;;;;;1999.90;999.90;;;14.50;99.90;;;;;;5077917;28;20032;-78
2022/07/01 10:12:19;;;;;;;1999.90;999.90;;;14.40;99.90;;;;;;5068524;28;20168;-78
2022/07/01 10:14:45;;;;;;;1999.90;999.90;;;14.10;99.90;;;;;;5088802;28;20303;-78
2022/07/01 10:17:29;;;;;;;1999.90;999.90;;;14.10;99.90;;;;;;5091722;28;20109;-78
2022/07/01 10:19:57;;;;;;;1999.90;999.90;;;14.20;99.90;;;;;;5073640;28;20187;-79
2022/07/01 10:22:29;;;;;;;1999.90;999.90;;;14.10;99.90;;;;;;5088914;28;20028;-78
2022/07/01 10:25:16;;;;;;;1999.90;999.90;;;14.30;99.90;;;;;;5102569;28;20028;-78
2022/07/01 10:27:42;;;;;;;1999.90;999.90;;;14.30;99.90;;;;;;5093759;28;20031;-79
2022/07/01 10:30:15;;;;;;;1999.90;999.90;;;14.30;99.90;;;;;;5055457;28;20055;-79
2022/07/01 10:32:48;;;;;;;1999.90;999.90;;;14.20;99.90;;;;;;5086777;28;20043;-79
2022/07/01 10:35:14;;;;;;;1999.90;999.90;;;14.30;99.90;;;;;;5089938;28;20299;-79
2022/07/01 10:38:00;;;;;;;1999.90;999.90;;;14.30;99.90;;;;;;5091045;28;20552;-80
2022/07/01 10:40:46;;;;;;;1999.90;999.90;;;14.30;99.90;;;;;;5089822;28;20036;-84
2022/07/01 10:43:16;;;;;;;1999.90;999.90;;;14.30;99.90;;;;;;5071096;28;20436;-79
2022/07/01 10:45:46;;;;;;;1999.90;999.90;;;14.20;99.90;;;;;;5087253;28;20129;-81
2022/07/01 10:48:23;;;;;;;1999.90;999.90;;;14.20;99.90;;;;;;5089732;28;20119;-77
2022/07/01 10:50:50;;;;;;;1999.90;999.90;;;14.50;99.90;;;;;;5091243;28;20028;-77
2022/07/01 10:53:16;;;;;;;1999.90;999.90;;;14.60;99.90;;;;;;5095399;28;20541;-78
2022/07/01 10:55:51;;;;;;;1999.90;999.90;;;14.40;99.90;;;;;;5078835;28;20050;-76
2022/07/01 10:58:18;;;;;;;1999.90;999.90;;;14.40;99.90;;;;;;5098969;28;20035;-76
2022/07/01 11:00:46;;;;;;;1999.90;999.90;;;14.40;99.90;;;;;;5097607;28;20032;-76
2022/07/01 11:03:20;;;;;;;1999.90;999.90;;;14.50;99.90;;;;;;5091507;28;20062;-76
2022/07/01 11:05:49;;;;;;;1999.90;999.90;;;14.70;99.90;;;;;;5079675;28;20311;-77
2022/07/01 11:08:15;;;;;;;1999.90;999.90;;;14.70;99.90;;;;;;5076508;28;20495;-77
2022/07/01 11:10:42;;;;;;;1999.90;999.90;;;14.70;99.90;;;;;;5094443;28;20042;-76
2022/07/01 11:13:08;;;;;;;1999.90;999.90;;;14.50;99.90;;;;;;5071721;28;20044;-76
2022/07/01 11:15:34;;;;;;;1999.90;999.90;;;14.60;99.90;;;;;;5086216;28;20020;-77
2022/07/01 11:18:01;;;;;;;1999.90;999.90;;;14.40;99.90;;;;;;5069238;28;20026;-76
2022/07/01 11:20:31;;;;;;;1999.90;999.90;;;14.70;99.90;;;;;;5091501;28;20027;-76
2022/07/01 11:22:57;;;;;;;1999.90;999.90;;;14.20;99.90;;;;;;5084055;28;20616;-76
2022/07/01 11:25:23;;;;;;;1999.90;999.90;;;14.30;99.90;;;;;;5098244;28;20071;-76
2022/07/01 11:27:50;;;;;;;1999.90;999.90;;;14.50;99.90;;;;;;5082142;28;20024;-76
2022/07/01 11:30:19;;;;;;;1999.90;999.90;;;14.60;99.90;;;;;;5095552;28;20024;-77
2022/07/01 11:32:50;;;;;;;1999.90;999.90;;;14.60;99.90;;;;;;5075368;28;20020;-76
2022/07/01 11:41:02;;;;;;;1999.90;999.90;;;14.30;99.90;;;;;;5091681;28;20047;-76
2022/07/01 11:43:33;;;;;;;1999.90;999.90;;;14.50;99.90;;;;;;5087282;28;20039;-83
2022/07/01 11:46:01;;;;;;;1999.90;999.90;;;14.30;99.90;;;;;;5067182;28;20046;-85
2022/07/01 11:48:36;;;;;;;1999.90;999.90;;;14.40;99.90;;;;;;5089636;28;20020;-84
2022/07/01 11:51:14;;;;;;;1999.90;999.90;;;14.30;99.90;;;;;;5093635;28;20043;-85
2022/07/01 11:53:45;;;;;;;1999.90;999.90;;;14.40;99.90;;;;;;5091876;28;20075;-81
2022/07/01 11:56:12;;;;;;;1999.90;999.90;;;14.40;99.90;;;;;;5098140;28;20023;-81
2022/07/01 11:58:51;;;;;;;1999.90;999.90;;;14.40;99.90;;;;;;5083354;28;20043;-86
2022/07/01 12:01:31;;;;;;;1999.90;999.90;;;14.40;99.90;;;;;;5096401;28;20031;-80
2022/07/01 12:03:59;;;;;;;1999.90;999.90;;;14.50;99.90;;;;;;5078809;28;20122;-78
2022/07/01 12:06:26;;;;;;;1999.90;999.90;;;14.40;99.90;;;;;;5097117;28;20035;-78
2022/07/01 12:08:53;;;;;;;1999.90;999.90;;;14.50;99.90;;;;;;5059649;28;20516;-81
2022/07/01 12:11:21;;;;;;;1999.90;999.90;;;14.50;99.90;;;;;;5069849;28;20048;-79
2022/07/01 12:13:49;;;;;;;1999.90;999.90;;;14.60;99.90;;;;;;5071341;28;20028;-80
2022/07/01 12:16:15;;;;;;;1999.90;999.90;;;14.50;99.90;;;;;;5067366;28;20031;-79
2022/07/01 12:19:01;;;;;;;1999.90;999.90;;;14.60;99.90;;;;;;5072415;28;20129;-79